Time;durP1;ratioP1;P1;durP2;ratioP2;P2;SDS_P1;SDS_P2;PMS_P1;PMS_P2;Temp;Humidity;BMP_temperature;BMP_pressure;BME280_temperature;BME280_humidity;BME280_pressure;Samples;Min_cycle;Max_cycle;Signal;HPM_P1;HPM_P2
2021/05/31 00:00:43;;;;;;;1.97;1.60;;;15.60;22.30;;;;;;10422796;28;20237;-72
2021/05/31 00:05:45;;;;;;;2.80;1.90;;;15.50;22.40;;;;;;10425507;28;20235;-74
2021/05/31 00:10:48;;;;;;;2.50;1.60;;;15.40;22.20;;;;;;10418910;28;20327;-74
2021/05/31 00:15:52;;;;;;;1.83;1.60;;;15.30;22.40;;;;;;10417482;28;20305;-74
2021/05/31 00:20:55;;;;;;;2.00;1.80;;;15.20;22.80;;;;;;10419230;28;20236;-74
2021/05/31 00:25:58;;;;;;;1.80;1.70;;;15.10;22.80;;;;;;10419531;28;20232;-76
2021/05/31 00:31:01;;;;;;;4.60;1.90;;;15.00;22.70;;;;;;10412639;28;20232;-75
2021/05/31 00:36:05;;;;;;;1.93;1.63;;;14.90;22.90;;;;;;10414925;28;20220;-75
2021/05/31 00:41:08;;;;;;;1.90;1.80;;;14.80;23.00;;;;;;10418597;28;20237;-75
2021/05/31 00:46:11;;;;;;;1.67;1.40;;;14.70;23.10;;;;;;10417665;28;20709;-75
2021/05/31 00:51:14;;;;;;;1.83;1.73;;;14.60;23.40;;;;;;10421233;28;20736;-75
2021/05/31 00:56:18;;;;;;;1.63;1.53;;;14.50;23.30;;;;;;10422998;28;20731;-75
2021/05/31 01:01:22;;;;;;;1.67;1.57;;;14.50;23.30;;;;;;10422094;28;20229;-75
2021/05/31 01:06:32;;;;;;;1.63;1.53;;;14.40;23.70;;;;;;10420131;28;20253;-75
2021/05/31 01:11:48;;;;;;;1.70;1.60;;;14.30;24.00;;;;;;10417111;28;20328;-75
2021/05/31 01:16:57;;;;;;;2.20;2.00;;;14.30;24.40;;;;;;10418624;28;20237;-75
2021/05/31 01:22:05;;;;;;;2.10;1.90;;;14.20;24.10;;;;;;10419901;28;20225;-75
2021/05/31 01:27:10;;;;;;;1.70;1.60;;;14.10;24.10;;;;;;10416360;28;20317;-75
2021/05/31 01:32:16;;;;;;;1.80;1.70;;;14.00;23.90;;;;;;10425651;28;20233;-75
2021/05/31 01:37:22;;;;;;;1.80;1.70;;;13.90;24.00;;;;;;10436384;28;20240;-75
2021/05/31 01:42:26;;;;;;;2.10;1.90;;;13.80;24.10;;;;;;10438247;28;20302;-75
2021/05/31 01:47:33;;;;;;;2.43;2.00;;;13.60;24.10;;;;;;10432979;28;20735;-75
2021/05/31 01:52:38;;;;;;;1.73;1.53;;;13.50;24.30;;;;;;10429838;28;20239;-75
2021/05/31 01:57:42;;;;;;;1.80;1.70;;;13.40;24.30;;;;;;10432025;28;20658;-75
2021/05/31 02:02:46;;;;;;;1.80;1.70;;;13.30;24.40;;;;;;10433927;28;20887;-75
2021/05/31 02:07:49;;;;;;;1.60;1.50;;;13.30;24.70;;;;;;10435418;28;21005;-75
2021/05/31 02:12:54;;;;;;;3.13;2.30;;;13.30;24.50;;;;;;10429011;28;20228;-75
2021/05/31 02:18:06;;;;;;;1.73;1.63;;;13.20;24.60;;;;;;10430283;28;20716;-75
2021/05/31 02:23:10;;;;;;;1.73;1.63;;;13.10;25.20;;;;;;10433192;28;20225;-75
2021/05/31 02:28:13;;;;;;;1.70;1.60;;;13.00;24.80;;;;;;10426929;28;20880;-74
2021/05/31 02:33:17;;;;;;;2.00;1.80;;;12.90;24.60;;;;;;10430480;28;20312;-75
2021/05/31 02:38:20;;;;;;;2.23;2.03;;;12.90;25.10;;;;;;10433839;28;20235;-75
2021/05/31 02:43:22;;;;;;;2.50;1.90;;;12.80;25.00;;;;;;10428109;28;20777;-75
2021/05/31 02:48:27;;;;;;;1.90;1.80;;;12.70;25.50;;;;;;10419641;28;20225;-75
2021/05/31 02:53:31;;;;;;;2.77;1.60;;;12.70;25.30;;;;;;10423572;28;20246;-75
2021/05/31 02:58:34;;;;;;;2.00;1.90;;;12.60;25.00;;;;;;10421171;28;20229;-75
2021/05/31 03:03:38;;;;;;;1.90;1.80;;;12.60;25.20;;;;;;10421830;28;20233;-75
2021/05/31 03:08:40;;;;;;;1.63;1.53;;;12.60;25.40;;;;;;10423369;28;20631;-75
2021/05/31 03:13:43;;;;;;;3.13;1.87;;;12.50;25.20;;;;;;10425713;28;20243;-75
2021/05/31 03:18:47;;;;;;;1.90;1.80;;;12.50;25.20;;;;;;10427064;28;20709;-75
2021/05/31 03:23:50;;;;;;;1.93;1.83;;;12.40;25.60;;;;;;10425757;28;20233;-74
2021/05/31 03:28:53;;;;;;;2.30;2.10;;;12.40;25.40;;;;;;10417569;28;20226;-75
2021/05/31 03:33:57;;;;;;;2.30;2.10;;;12.40;25.60;;;;;;10422377;28;20226;-74
2021/05/31 03:38:59;;;;;;;2.10;2.00;;;12.30;25.80;;;;;;10420876;28;20237;-74
2021/05/31 03:44:02;;;;;;;2.00;1.90;;;12.30;25.60;;;;;;10421243;28;20229;-75
2021/05/31 03:49:06;;;;;;;2.07;1.90;;;12.20;25.60;;;;;;10421168;28;20799;-75
2021/05/31 03:54:09;;;;;;;2.27;1.90;;;12.20;26.60;;;;;;10426831;28;20240;-75
2021/05/31 03:59:12;;;;;;;2.50;2.30;;;12.10;25.70;;;;;;10422405;28;20312;-75
2021/05/31 04:04:16;;;;;;;2.10;1.93;;;12.10;25.70;;;;;;10419728;28;20230;-75
2021/05/31 04:14:39;;;;;;;1.80;1.70;;;12.00;26.10;;;;;;10424441;28;20465;-75
2021/05/31 04:19:43;;;;;;;2.70;2.10;;;11.90;26.10;;;;;;10425347;28;20312;-75
2021/05/31 04:24:46;;;;;;;2.20;2.10;;;12.00;26.60;;;;;;10419220;28;20224;-75
2021/05/31 04:29:50;;;;;;;5.00;3.70;;;11.90;26.40;;;;;;10416152;28;20239;-75
2021/05/31 04:34:54;;;;;;;3.13;2.80;;;12.00;26.60;;;;;;10417223;28;20232;-74
2021/05/31 04:39:57;;;;;;;2.70;2.50;;;12.00;26.90;;;;;;10419357;28;20236;-74
2021/05/31 04:45:00;;;;;;;2.60;2.40;;;12.00;26.70;;;;;;10419719;28;20293;-73
2021/05/31 04:50:05;;;;;;;2.77;2.57;;;12.00;27.00;;;;;;10415814;28;20283;-74
2021/05/31 04:55:14;;;;;;;2.93;2.70;;;12.00;27.70;;;;;;10420944;28;20353;-73
2021/05/31 05:00:18;;;;;;;2.67;2.10;;;12.10;27.40;;;;;;10419852;28;20256;-74
2021/05/31 05:05:23;;;;;;;3.23;2.93;;;12.10;27.50;;;;;;10421445;28;20264;-74
2021/05/31 05:10:25;;;;;;;3.00;2.80;;;12.20;28.20;;;;;;10415128;28;20245;-74
2021/05/31 05:15:28;;;;;;;3.03;2.73;;;12.30;28.00;;;;;;10424086;28;20329;-74
2021/05/31 05:20:34;;;;;;;3.10;2.80;;;12.40;28.00;;;;;;10415528;28;20233;-73
2021/05/31 05:25:37;;;;;;;2.70;2.50;;;12.60;28.70;;;;;;10418819;28;20232;-73
2021/05/31 05:30:40;;;;;;;3.00;2.80;;;12.70;28.30;;;;;;10426631;28;20225;-75
2021/05/31 05:35:48;;;;;;;3.30;3.00;;;12.80;28.30;;;;;;10423568;28;20225;-74
2021/05/31 05:41:14;;;;;;;3.03;2.83;;;13.00;28.80;;;;;;10416671;28;20225;-73
2021/05/31 05:46:37;;;;;;;3.03;2.83;;;13.10;28.30;;;;;;10415887;28;20228;-74
2021/05/31 05:51:42;;;;;;;3.30;3.10;;;13.20;28.40;;;;;;10421540;28;20245;-74
2021/05/31 05:56:44;;;;;;;3.37;3.17;;;13.40;28.80;;;;;;10416511;28;20238;-74
2021/05/31 06:01:50;;;;;;;3.37;3.07;;;13.60;28.80;;;;;;10421961;28;20846;-75
2021/05/31 06:06:54;;;;;;;3.80;3.40;;;13.70;28.80;;;;;;10419671;28;20235;-76
2021/05/31 06:11:57;;;;;;;3.30;3.10;;;13.90;29.30;;;;;;10418034;28;20221;-75
2021/05/31 06:17:00;;;;;;;3.40;3.10;;;14.10;28.90;;;;;;10428403;28;20621;-75
2021/05/31 06:22:05;;;;;;;3.10;2.90;;;14.30;29.00;;;;;;10428102;28;20821;-75
2021/05/31 06:27:08;;;;;;;3.03;2.83;;;14.50;29.00;;;;;;10426491;28;20268;-76
2021/05/31 06:32:10;;;;;;;3.40;3.10;;;14.70;28.40;;;;;;10422584;28;20316;-75
2021/05/31 06:37:15;;;;;;;2.90;2.70;;;14.90;28.30;;;;;;10422504;28;20260;-75
2021/05/31 06:42:18;;;;;;;3.07;2.87;;;15.10;29.00;;;;;;10424011;28;20243;-75
2021/05/31 06:47:21;;;;;;;2.80;2.60;;;15.30;28.10;;;;;;10423372;28;20229;-75
2021/05/31 06:52:25;;;;;;;3.17;2.97;;;15.50;28.20;;;;;;10426469;28;20268;-73
2021/05/31 06:57:27;;;;;;;2.90;2.70;;;15.80;28.10;;;;;;10422746;28;20258;-74
2021/05/31 07:02:30;;;;;;;2.70;2.50;;;16.00;27.80;;;;;;10418885;28;20224;-74
2021/05/31 07:07:34;;;;;;;2.77;2.57;;;16.20;27.70;;;;;;10423307;28;20229;-74
2021/05/31 07:12:38;;;;;;;2.70;2.50;;;16.40;27.70;;;;;;10423461;28;20233;-74
2021/05/31 07:17:41;;;;;;;2.93;2.70;;;16.60;27.60;;;;;;10422254;28;20316;-73
2021/05/31 07:22:46;;;;;;;3.53;2.60;;;16.80;27.60;;;;;;10420256;28;20717;-74
2021/05/31 07:27:49;;;;;;;2.60;2.40;;;17.00;27.40;;;;;;10429968;28;20311;-73
2021/05/31 07:32:52;;;;;;;2.70;2.50;;;17.20;27.30;;;;;;10423976;28;20284;-73
2021/05/31 07:37:57;;;;;;;2.60;2.40;;;17.40;27.00;;;;;;10422049;28;20731;-73
2021/05/31 07:42:59;;;;;;;2.57;2.37;;;17.60;26.60;;;;;;10423775;28;20239;-73
2021/05/31 07:48:02;;;;;;;2.30;2.20;;;17.70;26.80;;;;;;10425666;28;20300;-75
2021/05/31 07:53:07;;;;;;;2.20;2.10;;;17.90;26.50;;;;;;10417885;28;20247;-75
2021/05/31 07:58:09;;;;;;;5.17;2.57;;;18.10;26.40;;;;;;10419572;28;20747;-75
2021/05/31 08:03:12;;;;;;;2.17;2.07;;;18.30;26.00;;;;;;10417875;28;20319;-75
2021/05/31 08:08:16;;;;;;;2.20;2.00;;;18.50;26.00;;;;;;10422594;28;20321;-75
2021/05/31 08:13:19;;;;;;;2.20;2.10;;;18.70;25.60;;;;;;10421461;28;20237;-75
2021/05/31 08:18:22;;;;;;;2.20;2.00;;;18.90;25.70;;;;;;10420450;28;20237;-75
2021/05/31 08:23:26;;;;;;;2.20;2.10;;;19.00;25.60;;;;;;10424791;28;20261;-75
2021/05/31 08:28:29;;;;;;;2.40;2.30;;;19.20;24.80;;;;;;10414965;28;20227;-73
2021/05/31 08:33:31;;;;;;;2.63;2.50;;;19.40;25.00;;;;;;10421108;28;20693;-78
2021/05/31 08:38:36;;;;;;;2.43;2.23;;;19.60;25.00;;;;;;10424064;28;20229;-78
2021/05/31 08:43:39;;;;;;;2.50;2.30;;;19.80;25.10;;;;;;10422770;28;20233;-78
2021/05/31 08:48:42;;;;;;;2.17;2.07;;;19.90;25.20;;;;;;10421298;28;20228;-77
2021/05/31 08:53:46;;;;;;;2.33;2.13;;;20.00;24.70;;;;;;10420918;28;20233;-76
2021/05/31 08:58:49;;;;;;;2.20;2.00;;;20.20;24.10;;;;;;10425552;28;20228;-74
2021/05/31 09:03:54;;;;;;;2.53;2.33;;;20.30;24.50;;;;;;10422412;28;20231;-76
2021/05/31 09:09:00;;;;;;;2.37;2.27;;;20.40;24.10;;;;;;10426308;28;20221;-76
2021/05/31 09:14:03;;;;;;;2.57;2.37;;;20.50;24.10;;;;;;10418547;28;20276;-77
2021/05/31 09:19:06;;;;;;;2.60;2.40;;;20.70;24.00;;;;;;10423649;28;20248;-76
2021/05/31 09:24:12;;;;;;;2.40;2.30;;;20.70;23.90;;;;;;10421167;28;20320;-76
2021/05/31 09:29:16;;;;;;;2.77;2.57;;;20.80;23.40;;;;;;10419642;28;20324;-75
2021/05/31 09:34:19;;;;;;;2.43;2.33;;;20.80;23.60;;;;;;10412769;28;20728;-79
2021/05/31 09:39:30;;;;;;;3.03;2.30;;;20.90;23.60;;;;;;10420685;28;20744;-78
2021/05/31 09:44:33;;;;;;;2.30;2.20;;;21.00;23.00;;;;;;10410643;28;20237;-78
2021/05/31 09:49:37;;;;;;;2.57;2.37;;;21.00;23.60;;;;;;10411726;28;20221;-78
2021/05/31 09:54:43;;;;;;;2.43;2.33;;;21.10;23.30;;;;;;10422856;28;20229;-78
2021/05/31 09:59:48;;;;;;;2.20;1.90;;;21.20;22.80;;;;;;10416665;28;20311;-79
2021/05/31 10:05:01;;;;;;;2.00;1.90;;;21.30;23.10;;;;;;10426990;28;20300;-79
2021/05/31 10:10:07;;;;;;;2.20;2.10;;;21.40;23.20;;;;;;10427520;28;20224;-78
2021/05/31 10:15:28;;;;;;;2.27;2.03;;;21.50;22.80;;;;;;10429658;28;20255;-79
2021/05/31 10:20:31;;;;;;;2.10;2.00;;;21.50;22.90;;;;;;10423398;28;20228;-79
2021/05/31 10:25:45;;;;;;;2.23;2.10;;;21.50;22.90;;;;;;10419449;28;20260;-79
2021/05/31 10:30:49;;;;;;;2.33;2.13;;;21.60;22.70;;;;;;10424889;28;20233;-78
2021/05/31 10:35:55;;;;;;;2.40;2.20;;;21.70;22.60;;;;;;10427296;28;20220;-76
2021/05/31 10:40:59;;;;;;;2.07;1.97;;;21.70;22.70;;;;;;10422103;28;20747;-78
2021/05/31 10:46:03;;;;;;;2.30;2.10;;;21.80;22.80;;;;;;10425185;28;21312;-78
2021/05/31 10:51:13;;;;;;;2.10;2.00;;;21.90;22.50;;;;;;10423858;28;20225;-78
2021/05/31 10:56:26;;;;;;;1.90;1.80;;;21.90;21.30;;;;;;10429236;28;20324;-75
2021/05/31 11:01:40;;;;;;;2.50;2.30;;;22.00;21.80;;;;;;10425889;28;20233;-79
2021/05/31 11:06:44;;;;;;;1.80;1.70;;;22.00;21.20;;;;;;10422140;28;20228;-78
2021/05/31 11:11:50;;;;;;;2.00;1.90;;;22.10;21.80;;;;;;10423637;28;20264;-78
2021/05/31 11:16:55;;;;;;;2.00;1.90;;;22.20;21.50;;;;;;10419824;28;20225;-79
2021/05/31 11:21:59;;;;;;;2.00;1.90;;;22.20;21.20;;;;;;10424992;28;20233;-74
2021/05/31 11:27:04;;;;;;;1.97;1.87;;;22.30;21.00;;;;;;10424226;28;20229;-75
2021/05/31 11:32:07;;;;;;;1.93;1.80;;;22.30;21.00;;;;;;10416942;28;20239;-75
2021/05/31 11:37:10;;;;;;;1.80;1.70;;;22.30;20.90;;;;;;10426330;28;20282;-74
2021/05/31 11:42:18;;;;;;;1.90;1.80;;;22.20;21.00;;;;;;10425032;28;20253;-75
2021/05/31 11:47:21;;;;;;;3.50;2.20;;;22.30;21.20;;;;;;10429797;28;20220;-78
2021/05/31 11:52:25;;;;;;;2.23;2.13;;;22.30;21.30;;;;;;10424351;28;20600;-78
2021/05/31 11:57:32;;;;;;;2.00;1.90;;;22.40;21.10;;;;;;10418572;28;20234;-78
2021/05/31 12:02:41;;;;;;;2.00;1.90;;;22.50;20.30;;;;;;10422467;28;20312;-79
2021/05/31 12:07:46;;;;;;;2.17;2.07;;;22.60;20.30;;;;;;10421061;28;20701;-80
2021/05/31 12:12:51;;;;;;;2.43;1.97;;;22.60;20.50;;;;;;10431048;28;20279;-81
2021/05/31 12:17:55;;;;;;;2.27;1.77;;;22.70;20.30;;;;;;10421193;28;20231;-80
2021/05/31 12:22:58;;;;;;;2.13;1.93;;;22.70;20.40;;;;;;10419590;28;20240;-80
2021/05/31 12:28:05;;;;;;;2.10;2.00;;;22.80;21.10;;;;;;10418354;28;20233;-77
2021/05/31 12:33:12;;;;;;;2.07;1.87;;;22.90;19.40;;;;;;10418383;28;20597;-77
2021/05/31 12:38:18;;;;;;;1.80;1.70;;;22.90;19.70;;;;;;10416491;28;20220;-78
2021/05/31 12:43:32;;;;;;;1.90;1.80;;;22.90;19.70;;;;;;10418044;28;20240;-81
2021/05/31 12:48:34;;;;;;;2.27;2.17;;;22.90;19.30;;;;;;10419997;28;20228;-77
2021/05/31 12:53:39;;;;;;;2.07;1.97;;;22.80;19.80;;;;;;10421860;28;20604;-76
2021/05/31 12:58:43;;;;;;;2.00;1.90;;;22.80;19.90;;;;;;10418790;28;20232;-74
2021/05/31 13:03:45;;;;;;;2.00;1.90;;;22.80;19.70;;;;;;10420944;28;20236;-78
2021/05/31 13:08:48;;;;;;;2.00;1.80;;;22.80;19.80;;;;;;10421350;28;20225;-78
2021/05/31 13:13:54;;;;;;;2.37;2.17;;;22.70;19.80;;;;;;10421870;28;20243;-78
2021/05/31 13:19:00;;;;;;;1.90;1.80;;;22.70;19.40;;;;;;10417890;28;20316;-78
2021/05/31 13:24:03;;;;;;;2.20;2.10;;;22.60;19.40;;;;;;10421850;28;20311;-79
2021/05/31 13:29:07;;;;;;;2.40;2.20;;;22.60;19.40;;;;;;10415875;28;20229;-76
2021/05/31 13:34:10;;;;;;;2.10;2.00;;;22.70;19.00;;;;;;10415689;28;20244;-76
2021/05/31 13:39:16;;;;;;;2.10;1.70;;;22.70;19.40;;;;;;10420886;28;20260;-77
2021/05/31 13:44:22;;;;;;;1.70;1.60;;;22.80;19.40;;;;;;10421766;28;20241;-78
2021/05/31 13:49:25;;;;;;;2.07;1.97;;;22.90;18.90;;;;;;10415317;28;20236;-80
2021/05/31 13:54:27;;;;;;;1.73;1.63;;;23.00;19.30;;;;;;10420670;28;20237;-76
2021/05/31 13:59:31;;;;;;;1.77;1.67;;;23.20;19.00;;;;;;10427294;28;20283;-76
2021/05/31 14:04:34;;;;;;;1.73;1.63;;;23.30;18.70;;;;;;10413482;28;20700;-80
2021/05/31 14:09:37;;;;;;;2.20;2.00;;;23.30;18.80;;;;;;10419613;28;20231;-76
2021/05/31 14:14:41;;;;;;;2.20;2.00;;;23.40;18.80;;;;;;10419800;28;20331;-79
2021/05/31 14:19:44;;;;;;;1.80;1.70;;;23.50;18.60;;;;;;10424499;28;20216;-75
2021/05/31 14:24:47;;;;;;;1.80;1.70;;;23.50;18.80;;;;;;10413940;28;20231;-76
2021/05/31 14:29:51;;;;;;;2.00;1.90;;;23.50;18.90;;;;;;10411726;28;20229;-76
2021/05/31 14:34:54;;;;;;;2.00;1.90;;;23.50;18.50;;;;;;10416709;28;20242;-78
2021/05/31 14:39:56;;;;;;;2.17;1.80;;;23.60;18.70;;;;;;10420616;28;20221;-77
2021/05/31 14:45:01;;;;;;;1.67;1.60;;;23.60;18.50;;;;;;10422068;28;20568;-75
2021/05/31 14:50:06;;;;;;;2.00;1.90;;;23.70;18.20;;;;;;10430346;28;20224;-76
2021/05/31 14:55:10;;;;;;;1.73;1.63;;;23.80;18.20;;;;;;10430519;28;20586;-77
2021/05/31 15:00:17;;;;;;;2.00;1.90;;;23.80;17.90;;;;;;10429131;28;20255;-76
2021/05/31 15:05:21;;;;;;;1.63;1.53;;;23.80;17.70;;;;;;10424234;28;20229;-76
2021/05/31 15:10:24;;;;;;;1.90;1.80;;;23.80;17.70;;;;;;10425694;28;20323;-76
2021/05/31 15:15:29;;;;;;;2.23;1.50;;;23.80;18.70;;;;;;10431934;28;20243;-79
2021/05/31 15:20:32;;;;;;;1.90;1.80;;;23.90;17.80;;;;;;10421581;28;20234;-76
2021/05/31 15:25:34;;;;;;;1.57;1.50;;;24.00;17.90;;;;;;10428246;28;20229;-80
2021/05/31 15:30:39;;;;;;;1.70;1.60;;;24.00;18.20;;;;;;10440723;28;20226;-80
2021/05/31 15:35:42;;;;;;;1.80;1.70;;;24.10;17.90;;;;;;10439348;28;20217;-80
2021/05/31 15:40:44;;;;;;;1.70;1.60;;;24.20;18.00;;;;;;10431250;28;20252;-80
2021/05/31 15:45:52;;;;;;;1.80;1.70;;;24.20;18.00;;;;;;10439544;28;20871;-79
2021/05/31 15:50:56;;;;;;;1.53;1.43;;;24.10;17.50;;;;;;10425589;28;20327;-72
2021/05/31 15:55:59;;;;;;;1.60;1.50;;;24.00;17.90;;;;;;10420017;28;20291;-77
2021/05/31 16:01:05;;;;;;;1.93;1.53;;;24.00;17.90;;;;;;10418758;28;20308;-77
2021/05/31 16:06:09;;;;;;;1.70;1.60;;;24.00;17.90;;;;;;10419231;28;20342;-80
2021/05/31 16:11:12;;;;;;;1.60;1.50;;;24.10;17.90;;;;;;10420016;28;20230;-79
2021/05/31 16:16:17;;;;;;;1.90;1.80;;;24.10;17.90;;;;;;10427904;28;20229;-79
2021/05/31 16:21:20;;;;;;;1.70;1.60;;;24.20;18.00;;;;;;10418425;28;20237;-77
2021/05/31 16:26:23;;;;;;;1.70;1.60;;;24.20;17.90;;;;;;10417024;28;20225;-77
2021/05/31 16:31:27;;;;;;;1.33;1.33;;;24.10;17.90;;;;;;10419440;28;20233;-77
2021/05/31 16:36:33;;;;;;;1.53;1.43;;;24.00;17.40;;;;;;10430097;28;20225;-80
2021/05/31 16:41:35;;;;;;;1.37;1.37;;;24.00;17.40;;;;;;10421923;28;20235;-77
2021/05/31 16:46:40;;;;;;;1.53;1.43;;;23.90;17.20;;;;;;10423437;28;20225;-80
2021/05/31 16:51:43;;;;;;;1.60;1.50;;;23.80;17.50;;;;;;10423595;28;20597;-80
2021/05/31 16:56:46;;;;;;;1.60;1.50;;;23.80;17.70;;;;;;10434815;28;20235;-80
2021/05/31 17:01:51;;;;;;;1.70;1.60;;;23.90;17.80;;;;;;10419432;28;20228;-80
2021/05/31 17:06:54;;;;;;;2.40;1.40;;;23.80;17.70;;;;;;10428474;28;20228;-80
2021/05/31 17:22:40;;;;;;;2.97;1.40;;;24.10;17.40;;;;;;10423930;28;20735;-80
2021/05/31 17:27:47;;;;;;;1.60;1.50;;;24.20;17.50;;;;;;10427811;28;20669;-77
2021/05/31 17:32:57;;;;;;;1.67;1.57;;;24.10;17.00;;;;;;10420175;28;20717;-77
2021/05/31 17:38:00;;;;;;;1.57;1.50;;;24.10;16.80;;;;;;10428609;28;20217;-77
2021/05/31 17:43:03;;;;;;;1.50;1.40;;;24.00;17.30;;;;;;10397021;28;20308;-79
2021/05/31 17:48:08;;;;;;;1.57;1.47;;;23.90;17.10;;;;;;10423112;28;20233;-78
2021/05/31 17:53:12;;;;;;;1.27;1.27;;;23.80;17.70;;;;;;10418190;28;20251;-79
2021/05/31 17:58:15;;;;;;;1.77;1.67;;;23.70;17.60;;;;;;10431133;28;20239;-79
2021/05/31 18:03:20;;;;;;;1.53;1.43;;;23.60;17.20;;;;;;10423409;28;20725;-79
2021/05/31 18:08:23;;;;;;;1.53;1.50;;;23.50;17.10;;;;;;10429949;28;20224;-79
2021/05/31 18:13:25;;;;;;;3.00;1.60;;;23.50;17.30;;;;;;10427041;28;20337;-79
2021/05/31 18:18:30;;;;;;;1.40;1.30;;;23.40;17.30;;;;;;10434035;28;20228;-79
2021/05/31 18:23:32;;;;;;;1.50;1.50;;;23.20;17.30;;;;;;10436848;28;20235;-80
2021/05/31 18:28:36;;;;;;;1.70;1.60;;;23.20;17.30;;;;;;10425851;28;20229;-76
2021/05/31 18:33:46;;;;;;;1.63;1.43;;;23.00;17.20;;;;;;10434411;28;20235;-75
2021/05/31 18:38:48;;;;;;;1.70;1.50;;;23.00;17.20;;;;;;10433634;28;20221;-76
2021/05/31 18:43:52;;;;;;;1.40;1.37;;;22.90;17.10;;;;;;10429101;28;20224;-76
2021/05/31 18:48:56;;;;;;;2.00;1.67;;;22.90;17.20;;;;;;10441962;28;20221;-79
2021/05/31 18:54:00;;;;;;;2.40;1.63;;;22.80;17.20;;;;;;10431933;28;20221;-79
2021/05/31 18:59:03;;;;;;;2.10;1.47;;;22.80;17.50;;;;;;10438440;28;20308;-78
2021/05/31 19:04:07;;;;;;;2.90;1.60;;;22.80;17.90;;;;;;10429970;28;20225;-76
2021/05/31 19:09:10;;;;;;;1.50;1.40;;;22.70;17.90;;;;;;10425998;28;20776;-80
2021/05/31 19:14:13;;;;;;;2.03;1.60;;;22.60;18.00;;;;;;10440858;28;20249;-79
2021/05/31 19:19:17;;;;;;;2.83;1.90;;;22.50;18.20;;;;;;10441433;28;20803;-80
2021/05/31 19:24:20;;;;;;;3.73;1.80;;;22.40;18.50;;;;;;10425853;28;20637;-79
2021/05/31 19:29:30;;;;;;;2.63;1.93;;;22.20;18.50;;;;;;10428067;28;20240;-81
2021/05/31 19:34:35;;;;;;;1.87;1.77;;;22.00;18.90;;;;;;10436381;28;20225;-80
2021/05/31 19:39:38;;;;;;;1.87;1.77;;;21.90;18.90;;;;;;10433321;28;20295;-79
2021/05/31 19:44:44;;;;;;;1.97;1.87;;;21.70;18.90;;;;;;10438243;28;20737;-80
2021/05/31 19:49:53;;;;;;;2.67;1.90;;;21.50;19.00;;;;;;10431589;28;20308;-79
2021/05/31 19:55:19;;;;;;;1.67;1.57;;;21.30;19.50;;;;;;10430493;28;20229;-79
2021/05/31 20:00:23;;;;;;;1.50;1.50;;;21.10;19.30;;;;;;10428752;28;20602;-79
2021/05/31 20:05:27;;;;;;;1.70;1.60;;;20.90;19.60;;;;;;10437575;28;20745;-79
2021/05/31 20:10:30;;;;;;;1.70;1.60;;;20.80;19.70;;;;;;10437071;28;20228;-81
2021/05/31 20:15:50;;;;;;;1.60;1.50;;;20.70;19.70;;;;;;10421073;28;20728;-79
2021/05/31 20:20:56;;;;;;;1.97;1.87;;;20.50;19.80;;;;;;10428922;28;20234;-79
2021/05/31 20:25:59;;;;;;;2.10;2.00;;;20.40;20.10;;;;;;10436427;28;20323;-77
2021/05/31 20:31:02;;;;;;;1.70;1.60;;;20.30;20.10;;;;;;10426820;28;20249;-77
2021/05/31 20:36:06;;;;;;;1.80;1.70;;;20.20;19.90;;;;;;10434917;28;20240;-77
2021/05/31 20:41:09;;;;;;;1.63;1.53;;;20.10;20.40;;;;;;10431690;28;20612;-77
2021/05/31 20:46:12;;;;;;;2.07;1.87;;;19.90;20.30;;;;;;10432964;28;20312;-77
2021/05/31 20:51:19;;;;;;;1.53;1.40;;;19.80;20.40;;;;;;10432160;28;20252;-77
2021/05/31 20:56:22;;;;;;;2.00;1.90;;;19.70;20.70;;;;;;10428794;28;20767;-77
2021/05/31 21:01:25;;;;;;;2.10;2.00;;;19.60;20.60;;;;;;10424775;28;20753;-77
2021/05/31 21:06:30;;;;;;;1.77;1.67;;;19.40;20.60;;;;;;10432848;28;20225;-77
2021/05/31 21:11:50;;;;;;;1.93;1.83;;;19.30;20.90;;;;;;10433079;28;20305;-77
2021/05/31 21:16:57;;;;;;;2.27;2.07;;;19.20;20.90;;;;;;10426964;28;20702;-77
2021/05/31 21:22:07;;;;;;;2.30;2.10;;;19.10;21.10;;;;;;10420730;28;20232;-77
2021/05/31 21:27:10;;;;;;;2.57;2.37;;;18.90;21.40;;;;;;10435691;28;20216;-76
2021/05/31 21:32:13;;;;;;;2.90;2.60;;;18.70;21.10;;;;;;10432532;28;20225;-77
2021/05/31 21:37:17;;;;;;;3.47;3.20;;;18.40;21.20;;;;;;10432019;28;20228;-77
2021/05/31 21:42:21;;;;;;;3.57;2.97;;;18.10;21.70;;;;;;10432909;28;20713;-77
2021/05/31 21:47:24;;;;;;;2.73;2.53;;;17.90;21.90;;;;;;10431588;28;20842;-77
2021/05/31 21:52:28;;;;;;;3.27;2.70;;;17.70;21.90;;;;;;10438757;28;20312;-76
2021/05/31 21:57:31;;;;;;;2.90;2.70;;;17.50;22.50;;;;;;10443785;28;20221;-78
2021/05/31 22:02:33;;;;;;;5.17;2.30;;;17.40;22.40;;;;;;10437415;28;20231;-78
2021/05/31 22:07:39;;;;;;;2.70;2.10;;;17.30;22.60;;;;;;10437476;28;20726;-78
2021/05/31 22:12:42;;;;;;;2.57;2.37;;;17.20;23.20;;;;;;10438931;28;20221;-78
2021/05/31 22:17:46;;;;;;;2.80;2.60;;;17.00;22.80;;;;;;10437553;28;20225;-78
2021/05/31 22:33:34;;;;;;;2.60;2.40;;;16.80;23.10;;;;;;10441003;28;20312;-78
2021/05/31 22:38:44;;;;;;;3.00;2.70;;;16.70;23.10;;;;;;10431884;28;20218;-78
2021/05/31 22:54:51;;;;;;;2.77;2.37;;;16.60;23.00;;;;;;10439072;28;20308;-78
2021/05/31 23:16:00;;;;;;;3.73;2.70;;;16.40;23.60;;;;;;10431552;28;20229;-76
2021/05/31 23:21:03;;;;;;;2.70;2.50;;;16.30;23.30;;;;;;10429829;28;20225;-76
2021/05/31 23:26:07;;;;;;;2.73;2.53;;;16.30;23.40;;;;;;10426426;28;20316;-79
2021/05/31 23:31:10;;;;;;;3.03;2.73;;;16.20;23.80;;;;;;10430654;28;20233;-76
2021/05/31 23:36:14;;;;;;;2.83;2.63;;;16.10;23.60;;;;;;10418499;28;20245;-76
2021/05/31 23:41:20;;;;;;;2.70;2.50;;;16.10;23.90;;;;;;10433812;28;20312;-77
2021/05/31 23:46:24;;;;;;;3.37;2.63;;;16.00;24.10;;;;;;10429988;28;20840;-77
2021/05/31 23:51:31;;;;;;;3.10;2.90;;;15.90;24.10;;;;;;10428093;28;20712;-77
2021/05/31 23:56:42;;;;;;;2.47;2.37;;;15.80;24.50;;;;;;10424831;28;20258;-77
